Time;durP1;ratioP1;P1;durP2;ratioP2;P2;SDS_P1;SDS_P2;PMS_P1;PMS_P2;Temp;Humidity;BMP_temperature;BMP_pressure;BME280_temperature;BME280_humidity;BME280_pressure;Samples;Min_cycle;Max_cycle;Signal;HPM_P1;HPM_P2
2021/12/28 05:00:23;;;;;;;10.00;3.67;;;7.10;99.70;;;;;;5012721;28;20793;-61
2021/12/28 05:02:50;;;;;;;11.13;2.90;;;7.00;99.70;;;;;;5012137;28;20258;-63
2021/12/28 05:05:17;;;;;;;7.93;2.93;;;7.00;99.70;;;;;;5011722;28;20825;-60
2021/12/28 05:07:44;;;;;;;10.30;3.40;;;7.00;99.70;;;;;;5011880;28;20457;-61
2021/12/28 05:10:11;;;;;;;11.97;3.87;;;6.90;99.70;;;;;;5012536;28;20464;-65
2021/12/28 05:12:38;;;;;;;10.27;3.70;;;7.00;99.70;;;;;;5012062;28;20469;-62
2021/12/28 05:15:07;;;;;;;10.03;4.30;;;7.00;99.70;;;;;;5012073;28;20442;-61
2021/12/28 05:17:35;;;;;;;10.43;4.83;;;7.00;99.70;;;;;;5011958;28;20489;-62
2021/12/28 05:20:02;;;;;;;9.97;4.43;;;7.00;99.70;;;;;;5011722;28;20869;-64
2021/12/28 05:22:28;;;;;;;9.23;3.43;;;7.00;99.70;;;;;;5011834;28;20466;-62
2021/12/28 05:24:55;;;;;;;6.97;2.90;;;7.10;99.70;;;;;;5011562;28;20635;-61
2021/12/28 05:27:22;;;;;;;9.40;2.80;;;7.10;99.70;;;;;;5011827;28;20453;-65
2021/12/28 05:29:49;;;;;;;6.10;3.00;;;7.20;99.70;;;;;;5011463;28;20445;-62
2021/12/28 05:32:16;;;;;;;7.77;2.70;;;7.20;99.70;;;;;;5011785;28;20552;-63
2021/12/28 05:34:45;;;;;;;5.90;2.40;;;7.20;99.70;;;;;;5011853;28;20450;-62
2021/12/28 05:37:11;;;;;;;7.00;2.20;;;7.30;99.70;;;;;;5011636;28;20489;-60
2021/12/28 05:39:38;;;;;;;5.87;2.50;;;7.30;99.70;;;;;;5011353;28;20457;-60
2021/12/28 05:42:06;;;;;;;4.93;2.50;;;7.30;99.70;;;;;;5011637;28;20450;-63
2021/12/28 05:44:33;;;;;;;6.53;2.73;;;7.30;99.70;;;;;;5011640;28;21001;-64
2021/12/28 05:47:00;;;;;;;6.60;2.40;;;7.20;99.70;;;;;;5012121;28;20444;-60
2021/12/28 05:49:27;;;;;;;8.57;2.63;;;7.20;99.70;;;;;;5011606;28;20450;-61
2021/12/28 05:51:55;;;;;;;6.03;2.93;;;7.20;99.70;;;;;;5011797;28;20446;-62
2021/12/28 05:54:22;;;;;;;6.33;2.57;;;7.20;99.70;;;;;;5011489;28;21073;-61
2021/12/28 05:56:49;;;;;;;6.43;2.43;;;7.30;99.70;;;;;;5011739;28;20485;-61
2021/12/28 05:59:16;;;;;;;5.10;2.73;;;7.40;99.70;;;;;;5011160;28;20526;-63
2021/12/28 06:01:42;;;;;;;6.10;2.70;;;7.40;99.70;;;;;;5011905;28;20449;-63
2021/12/28 06:04:09;;;;;;;6.20;2.70;;;7.40;99.70;;;;;;5010658;28;20461;-61
2021/12/28 06:06:36;;;;;;;7.10;2.40;;;7.50;99.70;;;;;;5011668;28;20970;-63
2021/12/28 06:09:04;;;;;;;6.80;2.50;;;7.50;99.70;;;;;;5011259;28;20457;-64
2021/12/28 06:11:31;;;;;;;7.20;2.30;;;7.50;99.70;;;;;;5011644;28;20450;-61
2021/12/28 06:13:58;;;;;;;5.77;2.40;;;7.60;99.70;;;;;;5011412;28;20517;-62
2021/12/28 06:16:24;;;;;;;6.40;2.53;;;7.60;99.70;;;;;;5011745;28;20457;-62
2021/12/28 06:18:51;;;;;;;5.83;2.50;;;7.60;99.70;;;;;;5011117;28;20485;-64
2021/12/28 06:21:18;;;;;;;4.40;2.30;;;7.60;99.70;;;;;;5011325;28;20445;-64
2021/12/28 06:23:44;;;;;;;5.07;2.40;;;7.60;99.70;;;;;;5011344;28;20465;-63
2021/12/28 06:26:12;;;;;;;6.30;2.70;;;7.70;99.70;;;;;;5011220;28;20454;-64
2021/12/28 06:28:39;;;;;;;6.17;2.50;;;7.70;99.70;;;;;;5010868;28;20464;-66
2021/12/28 06:31:06;;;;;;;4.40;2.50;;;7.70;99.70;;;;;;5011183;28;20453;-63
2021/12/28 06:33:32;;;;;;;6.37;2.50;;;7.70;99.70;;;;;;5011250;28;20472;-63
2021/12/28 06:35:59;;;;;;;5.00;2.50;;;7.70;99.70;;;;;;5011231;28;20449;-63
2021/12/28 06:38:26;;;;;;;5.00;2.60;;;7.80;99.70;;;;;;5014340;28;21011;-64
2021/12/28 06:40:53;;;;;;;7.33;3.30;;;7.80;99.70;;;;;;5014958;28;20449;-64
2021/12/28 06:43:21;;;;;;;8.07;3.33;;;7.80;99.70;;;;;;5015014;28;20465;-64
2021/12/28 06:45:50;;;;;;;6.13;3.07;;;7.90;99.70;;;;;;5014915;28;20445;-63
2021/12/28 06:48:17;;;;;;;6.40;2.53;;;7.80;99.70;;;;;;5014276;28;20536;-64
2021/12/28 06:50:44;;;;;;;7.63;3.63;;;7.80;99.70;;;;;;5014734;28;20943;-64
2021/12/28 06:53:10;;;;;;;6.67;3.43;;;7.90;99.70;;;;;;5014586;28;20472;-64
2021/12/28 06:55:37;;;;;;;7.93;3.33;;;7.90;99.70;;;;;;5014934;28;20444;-63
2021/12/28 06:58:05;;;;;;;5.70;3.07;;;7.80;99.70;;;;;;5014081;28;20535;-63
2021/12/28 07:00:34;;;;;;;6.10;3.00;;;7.70;99.70;;;;;;5014507;28;20452;-64
2021/12/28 07:03:00;;;;;;;6.77;2.90;;;7.70;99.70;;;;;;5014632;28;20466;-62
2021/12/28 07:05:27;;;;;;;6.10;2.60;;;7.60;99.70;;;;;;5013603;28;20998;-64
2021/12/28 07:07:54;;;;;;;4.50;2.77;;;7.60;99.70;;;;;;5014114;28;20445;-64
2021/12/28 07:10:20;;;;;;;7.83;2.90;;;7.60;99.70;;;;;;5014318;28;20798;-64
2021/12/28 07:12:50;;;;;;;6.07;2.90;;;7.60;99.70;;;;;;5014264;28;20539;-64
2021/12/28 07:15:17;;;;;;;7.73;3.03;;;7.50;99.70;;;;;;5014452;28;20445;-64
2021/12/28 07:17:45;;;;;;;6.30;2.63;;;7.50;99.70;;;;;;5013984;28;20488;-62
2021/12/28 07:20:13;;;;;;;9.00;3.17;;;7.60;99.70;;;;;;5014063;28;20827;-66
2021/12/28 07:22:40;;;;;;;5.87;3.07;;;7.60;99.70;;;;;;5014225;28;20511;-63
2021/12/28 07:25:09;;;;;;;6.77;2.90;;;7.70;99.70;;;;;;5014034;28;20806;-63
2021/12/28 07:27:36;;;;;;;5.50;2.57;;;7.70;99.70;;;;;;5014022;28;20946;-64
2021/12/28 07:30:05;;;;;;;6.07;2.30;;;7.70;99.70;;;;;;5013627;28;20529;-65
2021/12/28 07:32:32;;;;;;;4.57;2.27;;;7.70;99.70;;;;;;5014053;28;20473;-64
2021/12/28 07:35:00;;;;;;;3.50;1.90;;;7.80;99.70;;;;;;5013938;28;20830;-64
2021/12/28 07:37:27;;;;;;;3.07;1.80;;;7.80;99.70;;;;;;5013882;28;20489;-63
2021/12/28 07:39:54;;;;;;;5.53;2.10;;;7.90;99.70;;;;;;5013263;28;20454;-64
2021/12/28 07:42:21;;;;;;;3.93;1.73;;;7.90;99.70;;;;;;5013696;28;20469;-63
2021/12/28 07:44:49;;;;;;;3.10;1.70;;;8.00;99.70;;;;;;5013896;28;20685;-64
2021/12/28 07:47:15;;;;;;;3.60;1.80;;;8.10;99.70;;;;;;5013261;28;20454;-63
2021/12/28 07:49:42;;;;;;;3.67;1.60;;;8.10;99.70;;;;;;5013192;28;20884;-65
2021/12/28 07:54:41;;;;;;;2.60;1.50;;;8.20;99.70;;;;;;4991117;28;20490;-67
2021/12/28 07:57:08;;;;;;;2.60;1.33;;;8.20;99.70;;;;;;4993408;28;20517;-66
2021/12/28 07:59:34;;;;;;;2.50;1.40;;;8.30;99.70;;;;;;4993662;28;21019;-67
2021/12/28 08:02:01;;;;;;;3.07;1.40;;;8.30;99.70;;;;;;4994199;28;20447;-67
2021/12/28 08:04:28;;;;;;;2.80;1.50;;;8.30;99.70;;;;;;4993276;28;20991;-67
2021/12/28 08:06:55;;;;;;;3.33;1.60;;;8.30;99.70;;;;;;4993821;28;20450;-66
2021/12/28 08:09:21;;;;;;;2.10;1.20;;;8.40;99.70;;;;;;4993281;28;20474;-67
2021/12/28 08:11:49;;;;;;;3.10;1.30;;;8.40;99.70;;;;;;4993618;28;20446;-66
2021/12/28 08:14:17;;;;;;;2.30;1.20;;;8.50;99.70;;;;;;4993763;28;20466;-67
2021/12/28 08:16:44;;;;;;;2.40;1.30;;;8.50;99.70;;;;;;4993524;28;20476;-67
2021/12/28 08:19:11;;;;;;;2.30;1.23;;;8.60;99.70;;;;;;4990218;28;20488;-67
2021/12/28 08:21:38;;;;;;;2.90;1.50;;;8.60;99.70;;;;;;4991746;28;20942;-66
2021/12/28 08:24:05;;;;;;;2.20;1.20;;;8.60;99.70;;;;;;4992820;28;20466;-67
2021/12/28 08:26:33;;;;;;;2.77;1.20;;;8.60;99.70;;;;;;4992603;28;20451;-66
2021/12/28 08:29:01;;;;;;;3.83;1.30;;;8.60;99.70;;;;;;4992091;28;20447;-67
2021/12/28 08:31:28;;;;;;;2.20;1.20;;;8.70;99.70;;;;;;4992898;28;20496;-66
2021/12/28 08:33:55;;;;;;;3.53;1.37;;;8.70;99.70;;;;;;4992486;28;20952;-67
2021/12/28 08:36:22;;;;;;;2.40;1.30;;;8.80;99.70;;;;;;4992749;28;20526;-67
2021/12/28 08:38:49;;;;;;;2.23;1.37;;;8.80;99.70;;;;;;4991972;28;20854;-67
2021/12/28 08:41:17;;;;;;;2.40;1.37;;;8.80;99.70;;;;;;4992112;28;20442;-66
2021/12/28 08:43:43;;;;;;;2.80;1.30;;;8.70;99.70;;;;;;4992555;28;20473;-67
2021/12/28 08:46:11;;;;;;;2.30;1.20;;;8.80;99.70;;;;;;4991715;28;20982;-67
2021/12/28 08:48:38;;;;;;;2.80;1.20;;;8.80;99.70;;;;;;4991753;28;20450;-66
2021/12/28 08:51:05;;;;;;;3.73;1.40;;;8.90;99.70;;;;;;4992344;28;20443;-66
2021/12/28 08:53:32;;;;;;;3.50;1.40;;;8.90;99.70;;;;;;4992235;28;20474;-66
2021/12/28 08:55:59;;;;;;;3.70;1.30;;;8.90;99.70;;;;;;4992110;28;20490;-66
2021/12/28 08:58:26;;;;;;;2.20;1.17;;;8.90;99.70;;;;;;4990967;28;20485;-67
2021/12/28 09:00:53;;;;;;;2.40;1.23;;;9.00;99.70;;;;;;4991517;28;20450;-67
2021/12/28 09:03:21;;;;;;;2.20;1.10;;;9.10;99.70;;;;;;4992404;28;20525;-67
2021/12/28 09:05:47;;;;;;;2.83;1.20;;;9.20;99.70;;;;;;4991710;28;20513;-67
2021/12/28 09:08:17;;;;;;;2.97;1.10;;;9.30;99.70;;;;;;4991496;28;20978;-67
2021/12/28 09:10:44;;;;;;;2.10;1.10;;;9.30;99.70;;;;;;4991842;28;20885;-67
2021/12/28 09:13:14;;;;;;;2.87;1.17;;;9.30;99.70;;;;;;4991947;28;20489;-67
2021/12/28 09:15:42;;;;;;;4.77;1.10;;;9.30;99.70;;;;;;4991956;28;20533;-67
2021/12/28 09:18:10;;;;;;;2.97;1.30;;;9.30;99.70;;;;;;4991411;28;21025;-67
2021/12/28 09:20:38;;;;;;;3.50;1.60;;;9.30;99.70;;;;;;4991562;28;20458;-67
2021/12/28 09:23:05;;;;;;;4.03;1.90;;;9.30;99.70;;;;;;4986062;28;20901;-67
2021/12/28 09:25:32;;;;;;;3.43;1.40;;;9.30;99.70;;;;;;4991783;28;20447;-68
2021/12/28 09:27:59;;;;;;;3.63;1.30;;;9.40;99.70;;;;;;4991366;28;20439;-66
2021/12/28 09:30:26;;;;;;;2.47;1.30;;;9.40;99.70;;;;;;4991899;28;20443;-68
2021/12/28 09:32:53;;;;;;;2.27;1.10;;;9.40;99.70;;;;;;4991313;28;20469;-67
2021/12/28 09:35:20;;;;;;;3.03;1.40;;;9.50;99.70;;;;;;4992074;28;20450;-66
2021/12/28 09:37:48;;;;;;;2.20;1.20;;;9.50;99.70;;;;;;4991183;28;20450;-65
2021/12/28 09:40:16;;;;;;;2.10;1.10;;;9.60;99.70;;;;;;4991863;28;20454;-68
2021/12/28 09:42:43;;;;;;;2.40;1.27;;;9.80;99.70;;;;;;4983213;28;20890;-67
2021/12/28 09:45:14;;;;;;;2.20;1.10;;;9.80;99.70;;;;;;4987052;28;20842;-66
2021/12/28 09:47:41;;;;;;;2.60;1.30;;;9.90;99.70;;;;;;4988536;28;20458;-66
2021/12/28 09:50:12;;;;;;;2.60;1.10;;;9.90;99.70;;;;;;4989699;28;20434;-67
2021/12/28 09:52:39;;;;;;;2.10;1.20;;;9.90;99.70;;;;;;4989784;28;20534;-67
2021/12/28 09:55:09;;;;;;;2.10;1.10;;;9.90;99.70;;;;;;4989118;28;20544;-67
2021/12/28 09:57:36;;;;;;;2.50;1.30;;;9.90;99.70;;;;;;4984783;28;20835;-67
2021/12/28 10:00:07;;;;;;;2.10;1.13;;;9.90;99.70;;;;;;4986300;28;20902;-66
2021/12/28 10:02:35;;;;;;;2.20;1.10;;;9.90;99.70;;;;;;4988689;28;20469;-68
2021/12/28 10:05:06;;;;;;;2.57;1.20;;;9.90;99.70;;;;;;4990448;28;20493;-68
2021/12/28 10:07:36;;;;;;;3.83;1.13;;;10.00;99.70;;;;;;4988301;28;20454;-67
2021/12/28 10:10:05;;;;;;;2.20;1.20;;;10.10;99.70;;;;;;4989007;28;20509;-66
2021/12/28 10:12:35;;;;;;;2.87;1.27;;;10.10;99.70;;;;;;4990617;28;20552;-67
2021/12/28 10:15:06;;;;;;;2.10;1.20;;;10.20;99.70;;;;;;4993783;28;20454;-67
2021/12/28 10:17:34;;;;;;;2.20;1.20;;;10.30;99.70;;;;;;4992050;28;20967;-67
2021/12/28 10:20:05;;;;;;;2.40;1.20;;;10.30;99.70;;;;;;4989696;28;20908;-68
2021/12/28 10:22:34;;;;;;;2.23;1.20;;;10.20;99.70;;;;;;4993764;28;20486;-67
2021/12/28 10:25:04;;;;;;;2.30;1.13;;;10.20;99.70;;;;;;4990464;28;20882;-67
2021/12/28 10:27:33;;;;;;;2.40;1.23;;;10.30;99.70;;;;;;4992774;28;20450;-67
2021/12/28 10:30:11;;;;;;;2.20;1.10;;;10.20;99.70;;;;;;4994514;28;20969;-67
2021/12/28 10:32:38;;;;;;;2.20;1.20;;;10.20;99.70;;;;;;4994428;28;20532;-66
2021/12/28 10:35:08;;;;;;;2.67;1.40;;;10.20;99.70;;;;;;4993718;28;20450;-67
2021/12/28 10:37:37;;;;;;;6.37;1.10;;;10.10;99.70;;;;;;4992704;28;20504;-67
2021/12/28 10:40:07;;;;;;;2.10;1.10;;;10.10;99.70;;;;;;4990171;28;20482;-67
2021/12/28 10:42:44;;;;;;;3.60;1.67;;;10.20;99.70;;;;;;4993889;28;20466;-66
2021/12/28 10:45:13;;;;;;;2.40;1.30;;;10.30;99.70;;;;;;4994354;28;20481;-67
2021/12/28 10:47:42;;;;;;;2.10;1.10;;;10.30;99.70;;;;;;4992262;28;20466;-68
2021/12/28 10:50:29;;;;;;;2.20;1.10;;;10.40;99.70;;;;;;4994084;28;20833;-67
2021/12/28 10:53:04;;;;;;;3.03;1.20;;;10.50;99.70;;;;;;4990592;28;20490;-67
2021/12/28 10:55:31;;;;;;;2.33;1.20;;;10.60;99.70;;;;;;4989702;28;20840;-67
2021/12/28 10:58:00;;;;;;;2.47;1.13;;;10.60;99.70;;;;;;4990567;28;20465;-67
2021/12/28 11:00:30;;;;;;;2.43;1.30;;;10.60;99.70;;;;;;4988935;28;20462;-67
2021/12/28 11:03:26;;;;;;;2.57;1.20;;;10.70;99.70;;;;;;4982610;28;20489;-67
2021/12/28 11:05:54;;;;;;;2.17;1.10;;;10.80;99.70;;;;;;4991061;28;20457;-67
2021/12/28 11:08:24;;;;;;;2.93;1.33;;;10.80;99.70;;;;;;4993514;28;20947;-67
2021/12/28 11:10:53;;;;;;;2.30;1.10;;;10.80;99.70;;;;;;4986414;28;20467;-66
2021/12/28 11:13:25;;;;;;;2.10;1.10;;;10.80;99.70;;;;;;4994037;28;20458;-66
2021/12/28 11:15:52;;;;;;;2.60;1.23;;;10.80;99.70;;;;;;4993791;28;20447;-67
2021/12/28 11:18:21;;;;;;;2.87;1.30;;;10.80;99.70;;;;;;4993595;28;20453;-67
2021/12/28 11:20:49;;;;;;;2.50;1.23;;;10.80;99.70;;;;;;4989120;28;20450;-68
2021/12/28 11:23:18;;;;;;;4.90;1.40;;;10.80;99.70;;;;;;4990334;28;20470;-68
2021/12/28 11:25:45;;;;;;;2.60;1.30;;;10.70;99.70;;;;;;4993336;28;20904;-65
2021/12/28 11:28:17;;;;;;;2.10;1.10;;;10.70;99.70;;;;;;4993097;28;20883;-67
2021/12/28 11:31:04;;;;;;;4.23;1.27;;;10.70;99.70;;;;;;4991417;28;21001;-68
2021/12/28 11:33:47;;;;;;;3.63;1.30;;;10.70;99.70;;;;;;4992952;28;20470;-67
2021/12/28 11:36:16;;;;;;;3.23;1.30;;;10.70;99.70;;;;;;4993754;28;20462;-67
2021/12/28 11:38:43;;;;;;;7.80;1.30;;;10.70;99.70;;;;;;4990071;28;20487;-67
2021/12/28 11:41:11;;;;;;;2.93;1.60;;;10.80;99.70;;;;;;4986827;28;20458;-67
2021/12/28 11:43:42;;;;;;;2.37;1.10;;;10.80;99.70;;;;;;4986780;28;20470;-67
2021/12/28 11:46:11;;;;;;;2.93;1.60;;;10.90;99.70;;;;;;4991637;28;20454;-67
2021/12/28 11:48:38;;;;;;;4.37;1.50;;;11.00;99.70;;;;;;4992640;28;20458;-66
2021/12/28 11:51:06;;;;;;;2.60;1.60;;;11.10;99.70;;;;;;4992404;28;20465;-67
2021/12/28 11:53:36;;;;;;;2.43;1.30;;;11.00;99.70;;;;;;4992766;28;20478;-66
2021/12/28 11:56:08;;;;;;;2.97;1.40;;;10.90;99.70;;;;;;4993073;28;20830;-67
2021/12/28 11:59:00;;;;;;;2.70;1.20;;;11.00;99.70;;;;;;4991333;28;20454;-68
2021/12/28 12:01:59;;;;;;;3.17;1.67;;;10.90;99.70;;;;;;4979313;28;20835;-66
2021/12/28 12:04:57;;;;;;;2.20;1.20;;;11.00;99.70;;;;;;4992634;28;20529;-67
2021/12/28 12:07:30;;;;;;;2.20;1.20;;;11.00;99.70;;;;;;4989974;28;20470;-66
2021/12/28 12:10:31;;;;;;;2.87;1.33;;;11.00;99.70;;;;;;4985726;28;20746;-66
2021/12/28 12:13:13;;;;;;;2.60;1.60;;;10.80;99.70;;;;;;4992964;28;20560;-67
2021/12/28 12:15:44;;;;;;;2.40;1.30;;;10.80;99.70;;;;;;4990957;28;20802;-67
2021/12/28 12:18:19;;;;;;;2.47;1.33;;;10.70;99.70;;;;;;4991939;28;20483;-66
2021/12/28 12:21:05;;;;;;;2.10;1.20;;;10.70;99.70;;;;;;4991025;28;20585;-66
2021/12/28 12:23:43;;;;;;;2.80;1.50;;;10.80;99.70;;;;;;4992454;28;21013;-67
2021/12/28 12:26:17;;;;;;;2.70;1.40;;;10.70;99.70;;;;;;4990377;28;20982;-67
2021/12/28 12:28:47;;;;;;;2.80;1.47;;;10.70;99.70;;;;;;4991478;28;20442;-66
2021/12/28 12:31:36;;;;;;;3.10;1.50;;;10.70;99.70;;;;;;4983600;28;20542;-67
2021/12/28 12:34:27;;;;;;;2.53;1.30;;;10.70;99.70;;;;;;4991734;28;20485;-67
2021/12/28 12:36:54;;;;;;;2.87;1.30;;;10.70;99.70;;;;;;4989205;28;20467;-67
2021/12/28 12:39:23;;;;;;;2.80;1.40;;;10.60;99.70;;;;;;4989503;28;21038;-67
2021/12/28 12:41:55;;;;;;;2.47;1.33;;;10.60;99.70;;;;;;4980465;28;20451;-67
2021/12/28 12:44:24;;;;;;;2.47;1.40;;;10.60;99.70;;;;;;4990562;28;20478;-67
2021/12/28 12:46:53;;;;;;;4.60;1.70;;;10.60;99.70;;;;;;4988301;28;20459;-68
2021/12/28 12:49:31;;;;;;;3.63;1.90;;;10.60;99.70;;;;;;4987668;28;20458;-68
2021/12/28 12:52:02;;;;;;;3.30;2.00;;;10.60;99.70;;;;;;4986186;28;20458;-67
2021/12/28 12:54:42;;;;;;;4.00;1.87;;;10.70;99.70;;;;;;4990095;28;20477;-67
2021/12/28 12:57:24;;;;;;;3.80;2.00;;;10.70;99.70;;;;;;4991157;28;20434;-68
2021/12/28 13:00:09;;;;;;;2.97;1.80;;;10.70;99.70;;;;;;4991044;28;20470;-67
2021/12/28 13:02:37;;;;;;;3.10;1.77;;;10.70;99.70;;;;;;4989737;28;20466;-68
2021/12/28 13:05:15;;;;;;;3.40;1.70;;;10.70;99.70;;;;;;4991430;28;20919;-67
2021/12/28 13:07:43;;;;;;;3.00;1.50;;;10.80;99.70;;;;;;4989885;28;20449;-67
2021/12/28 13:10:15;;;;;;;3.03;1.40;;;10.90;99.70;;;;;;4991501;28;20798;-67
2021/12/28 13:12:44;;;;;;;3.43;1.60;;;11.00;99.70;;;;;;4991116;28;20459;-67
2021/12/28 13:15:11;;;;;;;2.77;1.40;;;11.00;99.70;;;;;;4991579;28;20442;-67
2021/12/28 13:17:42;;;;;;;3.00;1.60;;;11.00;99.70;;;;;;4991467;28;20443;-66
2021/12/28 13:20:15;;;;;;;2.90;1.30;;;11.00;99.70;;;;;;4991144;28;20529;-68
2021/12/28 13:22:46;;;;;;;2.97;1.30;;;11.00;99.70;;;;;;4985257;28;20478;-66
2021/12/28 13:25:15;;;;;;;3.00;1.40;;;10.80;99.70;;;;;;4981928;28;20475;-67
2021/12/28 13:27:45;;;;;;;2.83;1.40;;;10.80;99.70;;;;;;4985983;28;20995;-68
2021/12/28 13:30:14;;;;;;;2.37;1.30;;;10.80;99.70;;;;;;4985051;28;20442;-68
2021/12/28 13:32:42;;;;;;;2.73;1.53;;;10.80;99.70;;;;;;4983607;28;20549;-67
2021/12/28 13:35:15;;;;;;;2.90;1.40;;;10.80;99.70;;;;;;4990697;28;20450;-67
2021/12/28 13:37:44;;;;;;;2.60;1.27;;;10.80;99.70;;;;;;4990780;28;20900;-67
2021/12/28 13:40:24;;;;;;;2.73;1.40;;;10.80;99.70;;;;;;4990455;28;20521;-67
2021/12/28 13:43:03;;;;;;;2.60;1.40;;;10.80;99.70;;;;;;4992012;28;20513;-66
2021/12/28 13:45:33;;;;;;;4.70;1.40;;;10.80;99.70;;;;;;4971998;28;20451;-66
2021/12/28 13:48:01;;;;;;;2.40;1.33;;;10.80;99.70;;;;;;4972122;28;20447;-66
2021/12/28 13:50:30;;;;;;;4.10;1.60;;;10.80;99.70;;;;;;4990844;28;20446;-66
2021/12/28 13:52:59;;;;;;;3.23;1.47;;;10.80;99.70;;;;;;4991103;28;20470;-66
2021/12/28 13:55:29;;;;;;;2.70;1.30;;;10.70;99.70;;;;;;4991858;28;20875;-67
2021/12/28 13:57:57;;;;;;;4.23;1.50;;;10.80;99.70;;;;;;4990190;28;20470;-66
2021/12/28 14:00:27;;;;;;;3.47;1.50;;;10.70;99.70;;;;;;4991579;28;20485;-67
2021/12/28 14:02:56;;;;;;;3.10;1.50;;;10.70;99.70;;;;;;4991294;28;20509;-67
2021/12/28 14:05:24;;;;;;;3.33;1.60;;;10.60;99.70;;;;;;4991537;28;20824;-67
2021/12/28 14:07:53;;;;;;;5.47;1.90;;;10.50;99.70;;;;;;4990856;28;20446;-66
2021/12/28 14:10:21;;;;;;;4.10;1.60;;;10.50;99.70;;;;;;4991673;28;20484;-68
2021/12/28 14:13:02;;;;;;;3.60;1.63;;;10.50;99.70;;;;;;4991183;28;20497;-67
2021/12/28 14:15:29;;;;;;;5.50;1.80;;;10.40;99.70;;;;;;4991513;28;20449;-67
2021/12/28 14:17:56;;;;;;;4.53;1.50;;;10.40;99.70;;;;;;4990532;28;20450;-68
2021/12/28 14:20:28;;;;;;;5.10;2.00;;;10.30;99.70;;;;;;4991191;28;20478;-67
2021/12/28 14:22:56;;;;;;;3.30;1.60;;;10.30;99.70;;;;;;4991049;28;20489;-68
2021/12/28 14:25:24;;;;;;;3.03;1.67;;;10.30;99.70;;;;;;4991518;28;20885;-68
2021/12/28 14:27:56;;;;;;;4.20;1.83;;;10.30;99.70;;;;;;4991078;28;20450;-67
2021/12/28 14:30:25;;;;;;;3.53;1.67;;;10.30;99.70;;;;;;4991483;28;20474;-67
2021/12/28 14:32:53;;;;;;;3.13;1.63;;;10.30;99.70;;;;;;4990430;28;20462;-67
2021/12/28 14:35:26;;;;;;;3.43;1.70;;;10.20;99.70;;;;;;4991432;28;20458;-67
2021/12/28 14:37:53;;;;;;;3.60;1.80;;;10.20;99.70;;;;;;4990893;28;20449;-67
2021/12/28 14:40:24;;;;;;;3.97;2.20;;;10.20;99.70;;;;;;4991360;28;20488;-67
2021/12/28 14:42:52;;;;;;;5.60;2.47;;;10.20;99.70;;;;;;4990882;28;20473;-67
2021/12/28 14:45:20;;;;;;;3.10;1.73;;;10.20;99.70;;;;;;4991459;28;20446;-66
2021/12/28 14:47:48;;;;;;;3.80;1.80;;;10.30;99.70;;;;;;4990456;28;20450;-67
2021/12/28 14:50:21;;;;;;;6.20;1.90;;;10.30;99.70;;;;;;4991294;28;20443;-67
2021/12/28 14:52:50;;;;;;;3.10;1.53;;;10.30;99.70;;;;;;4991020;28;20584;-67
2021/12/28 14:55:19;;;;;;;4.13;2.00;;;10.30;99.70;;;;;;4991349;28;20486;-66
2021/12/28 14:57:49;;;;;;;2.90;1.67;;;10.30;99.70;;;;;;4990931;28;20453;-67
2021/12/28 15:00:20;;;;;;;5.10;2.03;;;10.30;99.70;;;;;;4988010;28;20482;-67
2021/12/28 15:02:53;;;;;;;4.13;2.00;;;10.30;99.70;;;;;;4984810;28;20490;-67
2021/12/28 15:05:21;;;;;;;4.80;1.90;;;10.20;99.70;;;;;;4990995;28;20458;-67
2021/12/28 15:07:54;;;;;;;3.53;1.70;;;10.20;99.70;;;;;;4985740;28;20463;-67
2021/12/28 15:10:21;;;;;;;3.90;1.70;;;10.10;99.70;;;;;;4988570;28;20466;-67
2021/12/28 15:12:51;;;;;;;5.83;2.00;;;10.10;99.70;;;;;;4989411;28;21017;-66
2021/12/28 15:15:18;;;;;;;3.47;1.73;;;10.10;99.70;;;;;;4987639;28;20470;-67
2021/12/28 15:17:49;;;;;;;6.47;2.00;;;10.00;99.70;;;;;;4991503;28;20481;-67
2021/12/28 15:20:16;;;;;;;3.70;1.80;;;10.00;99.70;;;;;;4988359;28;20625;-67
2021/12/28 15:22:43;;;;;;;4.20;1.80;;;10.00;99.70;;;;;;4992023;28;20894;-68
2021/12/28 15:25:11;;;;;;;4.67;2.00;;;10.00;99.70;;;;;;4991801;28;20550;-68
2021/12/28 15:27:39;;;;;;;8.03;2.90;;;10.00;99.70;;;;;;4990110;28;20529;-67
2021/12/28 15:30:11;;;;;;;9.17;2.20;;;10.00;99.70;;;;;;4991565;28;20680;-67
2021/12/28 15:32:38;;;;;;;3.93;1.70;;;9.90;99.70;;;;;;4981373;28;20489;-66
2021/12/28 15:35:09;;;;;;;3.33;1.90;;;9.70;99.70;;;;;;4992689;28;20501;-66
2021/12/28 15:37:35;;;;;;;3.47;2.23;;;9.50;99.70;;;;;;4982159;28;20453;-66
2021/12/28 15:40:02;;;;;;;4.97;1.80;;;9.30;99.70;;;;;;4992804;28;20486;-66
2021/12/28 15:42:32;;;;;;;6.43;1.53;;;9.10;99.70;;;;;;4993337;28;20477;-66
2021/12/28 15:44:59;;;;;;;5.67;1.70;;;8.90;99.70;;;;;;4993052;28;20465;-66
2021/12/28 15:47:28;;;;;;;4.10;1.33;;;8.60;99.70;;;;;;4993042;28;20464;-67
2021/12/28 15:49:55;;;;;;;3.00;1.40;;;8.50;99.70;;;;;;4985687;28;20446;-66
2021/12/28 15:52:22;;;;;;;3.80;1.30;;;8.60;99.70;;;;;;4992640;28;20447;-67
2021/12/28 15:54:49;;;;;;;6.47;1.37;;;8.40;99.70;;;;;;4993655;28;20446;-67
2021/12/28 15:57:17;;;;;;;5.83;1.37;;;8.30;99.70;;;;;;4990129;28;20463;-68
2021/12/28 15:59:44;;;;;;;2.80;1.23;;;8.20;99.70;;;;;;4988224;28;20525;-67
2021/12/28 16:02:10;;;;;;;3.40;1.50;;;8.20;99.70;;;;;;4988856;28;20485;-67
2021/12/28 16:04:38;;;;;;;5.03;1.83;;;8.20;99.70;;;;;;4989681;28;20451;-67
2021/12/28 16:07:05;;;;;;;9.43;2.00;;;8.10;99.70;;;;;;4988932;28;20466;-68
2021/12/28 16:09:32;;;;;;;8.47;2.00;;;8.10;99.70;;;;;;4985513;28;20469;-65
2021/12/28 16:11:58;;;;;;;9.57;1.73;;;8.00;99.70;;;;;;4990358;28;20462;-67
2021/12/28 16:14:27;;;;;;;7.67;1.70;;;8.00;99.70;;;;;;4992371;28;20497;-67
2021/12/28 16:16:55;;;;;;;8.03;1.93;;;8.00;99.70;;;;;;4990074;28;20475;-67
2021/12/28 16:19:23;;;;;;;5.03;1.60;;;8.00;99.70;;;;;;4989952;28;21049;-68
2021/12/28 16:21:52;;;;;;;11.70;2.00;;;8.00;99.70;;;;;;4990102;28;20538;-67
2021/12/28 16:24:19;;;;;;;7.90;1.87;;;7.90;99.70;;;;;;4992723;28;20463;-67
2021/12/28 16:26:48;;;;;;;8.30;2.10;;;8.00;99.70;;;;;;4988511;28;20446;-67
2021/12/28 16:29:15;;;;;;;6.53;1.83;;;7.80;99.70;;;;;;4992222;28;20454;-67
2021/12/28 16:31:41;;;;;;;8.50;1.70;;;7.80;99.70;;;;;;4991770;28;20463;-67
2021/12/28 16:34:11;;;;;;;6.07;1.70;;;7.80;99.70;;;;;;4988304;28;20506;-67
2021/12/28 16:36:40;;;;;;;10.10;1.70;;;7.80;99.70;;;;;;4986719;28;20521;-66
2021/12/28 16:39:09;;;;;;;4.20;1.63;;;7.70;99.70;;;;;;4989251;28;20918;-67
2021/12/28 16:41:36;;;;;;;4.67;1.60;;;7.60;99.70;;;;;;4988137;28;20483;-67
2021/12/28 16:44:04;;;;;;;4.93;1.43;;;7.60;99.70;;;;;;4989528;28;20494;-67
2021/12/28 16:46:31;;;;;;;5.07;1.67;;;7.60;99.70;;;;;;4987822;28;20454;-66
2021/12/28 16:48:58;;;;;;;3.23;1.50;;;7.60;99.70;;;;;;4986060;28;20461;-66
2021/12/28 16:51:25;;;;;;;5.00;1.30;;;7.40;99.70;;;;;;4989994;28;20509;-66
2021/12/28 16:53:53;;;;;;;4.20;1.40;;;7.40;99.70;;;;;;4984347;28;21062;-66
2021/12/28 16:56:21;;;;;;;3.50;1.60;;;7.50;99.70;;;;;;4987658;28;20458;-67
2021/12/28 16:58:50;;;;;;;3.93;1.30;;;7.40;99.70;;;;;;4986060;28;20463;-66
2021/12/28 17:01:17;;;;;;;5.10;1.50;;;7.40;99.70;;;;;;4986744;28;20514;-67
2021/12/28 17:03:45;;;;;;;3.57;1.30;;;7.30;99.70;;;;;;4987826;28;20465;-68
2021/12/28 17:06:12;;;;;;;4.03;1.50;;;7.40;99.70;;;;;;4990042;28;20458;-66
2021/12/28 17:08:39;;;;;;;6.50;1.30;;;7.40;99.70;;;;;;4985603;28;20533;-66
2021/12/28 17:11:05;;;;;;;2.73;1.43;;;7.30;99.70;;;;;;4989938;28;20537;-66
2021/12/28 17:13:34;;;;;;;3.27;1.23;;;7.30;99.70;;;;;;4987412;28;20482;-66
2021/12/28 17:16:01;;;;;;;2.40;1.30;;;7.40;99.70;;;;;;4985232;28;20466;-67
2021/12/28 17:18:28;;;;;;;2.93;1.40;;;7.40;99.70;;;;;;4986260;28;20549;-66
2021/12/28 17:20:54;;;;;;;3.80;1.30;;;7.30;99.70;;;;;;4980608;28;20490;-65
2021/12/28 17:23:21;;;;;;;2.60;1.20;;;7.30;99.70;;;;;;4990427;28;20458;-67
2021/12/28 17:25:48;;;;;;;3.40;1.17;;;7.30;99.70;;;;;;4991323;28;21007;-65
2021/12/28 17:28:15;;;;;;;2.43;1.30;;;7.30;99.70;;;;;;4984848;28;20464;-66
2021/12/28 17:30:43;;;;;;;2.30;1.10;;;7.30;99.70;;;;;;4990776;28;20443;-66
2021/12/28 17:33:10;;;;;;;3.17;1.20;;;7.40;99.70;;;;;;4988681;28;20470;-66
2021/12/28 17:35:39;;;;;;;4.73;1.50;;;7.40;99.70;;;;;;4988889;28;20454;-66
2021/12/28 17:38:06;;;;;;;3.43;1.50;;;7.40;99.70;;;;;;4987417;28;20470;-66
2021/12/28 17:40:36;;;;;;;5.73;1.40;;;7.50;99.70;;;;;;4990482;28;20479;-65
2021/12/28 17:43:03;;;;;;;3.60;1.60;;;7.50;99.70;;;;;;4990568;28;20470;-65
2021/12/28 17:45:29;;;;;;;4.60;1.87;;;7.40;99.70;;;;;;4990615;28;20451;-66
2021/12/28 17:47:58;;;;;;;5.03;1.63;;;7.50;99.70;;;;;;4986145;28;20998;-66
2021/12/28 17:50:27;;;;;;;7.03;2.10;;;7.50;99.70;;;;;;4984688;28;20491;-66
2021/12/28 17:52:55;;;;;;;3.47;1.80;;;7.40;99.70;;;;;;4986033;28;20485;-66
2021/12/28 17:55:28;;;;;;;13.63;4.07;;;7.40;99.70;;;;;;4990793;28;20459;-65
2021/12/28 17:57:56;;;;;;;6.20;2.50;;;7.40;99.70;;;;;;4986920;28;20453;-65
2021/12/28 18:00:24;;;;;;;8.03;2.00;;;7.30;99.70;;;;;;4988409;28;20438;-65
2021/12/28 18:02:51;;;;;;;5.43;2.10;;;7.40;99.70;;;;;;4989868;28;20503;-65
2021/12/28 18:05:19;;;;;;;5.77;1.80;;;7.30;99.70;;;;;;4990092;28;20450;-65